createdAt,value
2019-03-02T00:01:24.092Z,26.53
2019-03-02T00:03:57.597Z,29.70
2019-03-02T00:06:26.896Z,27.40
2019-03-02T00:08:56.692Z,31.83
2019-03-02T00:11:26.870Z,26.10
2019-03-02T00:13:55.824Z,27.07
2019-03-02T00:16:25.057Z,31.70
2019-03-02T00:18:53.955Z,23.73
2019-03-02T00:21:23.104Z,32.23
2019-03-02T00:23:54.250Z,30.57
2019-03-02T00:26:22.824Z,26.67
2019-03-02T00:28:52.167Z,29.20
2019-03-02T00:31:21.220Z,26.37
2019-03-02T00:33:53.759Z,26.10
2019-03-02T00:36:21.900Z,28.80
2019-03-02T00:38:51.376Z,30.40
2019-03-02T00:41:21.080Z,26.73
2019-03-02T00:43:50.040Z,32.13
2019-03-02T00:46:20.723Z,26.90
2019-03-02T00:48:50.023Z,24.30
2019-03-02T00:51:19.414Z,32.10
2019-03-02T00:53:48.299Z,25.40
2019-03-02T00:56:17.407Z,29.93
2019-03-02T00:58:46.267Z,26.80
2019-03-02T01:01:15.492Z,27.40
2019-03-02T01:03:47.725Z,27.30
2019-03-02T01:06:16.038Z,25.10
2019-03-02T01:08:45.572Z,31.83
2019-03-02T01:11:14.568Z,25.63
2019-03-02T01:13:44.489Z,29.50
2019-03-02T01:16:13.319Z,29.13
2019-03-02T01:18:43.438Z,32.43
2019-03-02T01:21:13.068Z,29.90
2019-03-02T01:23:42.211Z,29.60
2019-03-02T01:26:11.775Z,27.03
2019-03-02T01:28:41.669Z,30.10
2019-03-02T01:31:12.311Z,27.83
2019-03-02T01:33:42.259Z,30.87
2019-03-02T01:36:11.963Z,26.80
2019-03-02T01:38:41.165Z,30.47
2019-03-02T01:41:10.019Z,24.93
2019-03-02T01:43:40.492Z,28.00
2019-03-02T01:46:10.687Z,26.43
2019-03-02T01:48:39.996Z,29.87
2019-03-02T01:51:09.390Z,26.73
2019-03-02T01:53:41.810Z,19.80
2019-03-02T01:56:09.435Z,26.87
2019-03-02T01:58:38.504Z,24.30
2019-03-02T02:01:07.681Z,24.77
2019-03-02T02:03:36.911Z,27.17
2019-03-02T02:06:07.294Z,26.93
2019-03-02T02:08:37.255Z,25.07
2019-03-02T02:11:06.551Z,21.93
2019-03-02T02:13:38.879Z,28.17
2019-03-02T02:16:06.851Z,27.93
2019-03-02T02:18:35.897Z,26.27
2019-03-02T02:21:04.848Z,22.80
2019-03-02T02:23:34.380Z,31.27
2019-03-02T02:26:03.507Z,24.03
2019-03-02T02:28:33.465Z,27.40
2019-03-02T02:31:06.184Z,25.13
2019-03-02T02:33:42.685Z,27.87
2019-03-02T02:36:05.661Z,21.73
2019-03-02T02:38:34.901Z,28.07
2019-03-02T02:41:04.802Z,25.03
2019-03-02T02:43:34.544Z,26.53
2019-03-02T02:46:06.055Z,28.27
2019-03-02T02:48:35.191Z,27.20
2019-03-02T02:51:09.734Z,25.83
2019-03-02T02:53:40.214Z,29.40
2019-03-02T02:56:07.269Z,26.10
2019-03-02T02:58:36.433Z,23.30
2019-03-02T03:01:05.679Z,26.97
2019-03-02T03:03:34.752Z,26.13
2019-03-02T03:06:03.654Z,24.73
2019-03-02T03:08:45.956Z,23.07
2019-03-02T03:11:16.577Z,26.70
2019-03-02T03:13:46.360Z,22.23
2019-03-02T03:16:16.971Z,20.93
2019-03-02T03:18:52.034Z,21.73
2019-03-02T03:21:17.952Z,23.87
2019-03-02T03:23:46.777Z,17.30
2019-03-02T03:26:16.223Z,22.67
2019-03-02T03:28:45.784Z,18.23
2019-03-02T03:31:23.030Z,21.63
2019-03-02T03:33:47.185Z,22.27
2019-03-02T03:36:17.161Z,17.53
2019-03-02T03:38:46.366Z,21.23
2019-03-02T03:41:16.022Z,19.73
2019-03-02T03:43:45.599Z,18.07
2019-03-02T03:46:18.083Z,19.67
2019-03-02T03:48:45.621Z,21.60
2019-03-02T03:51:15.366Z,19.77
2019-03-02T03:53:44.755Z,23.03
2019-03-02T03:56:13.891Z,19.57
2019-03-02T03:58:43.117Z,19.20
2019-03-02T04:01:17.108Z,19.37
2019-03-02T04:03:47.200Z,19.60
2019-03-02T04:06:14.801Z,19.77
2019-03-02T04:08:44.416Z,18.43
2019-03-02T04:11:13.630Z,18.47
2019-03-02T04:13:46.375Z,18.93
2019-03-02T04:16:16.368Z,21.70
2019-03-02T04:18:57.214Z,18.60
2019-03-02T04:21:39.890Z,15.40
2019-03-02T04:24:09.073Z,19.10
2019-03-02T04:26:38.788Z,22.53
2019-03-02T04:29:10.073Z,20.77
2019-03-02T04:31:39.282Z,23.60
2019-03-02T04:34:08.845Z,22.83
2019-03-02T04:36:37.727Z,20.67
2019-03-02T04:39:09.483Z,21.13
2019-03-02T04:41:39.660Z,23.73
2019-03-02T04:44:09.496Z,23.90
2019-03-02T04:46:38.759Z,24.17
2019-03-02T04:49:10.974Z,25.47
2019-03-02T04:51:39.882Z,22.53
2019-03-02T04:54:09.732Z,20.73
2019-03-02T04:56:38.735Z,23.50
2019-03-02T04:59:08.836Z,21.50
2019-03-02T05:01:38.999Z,26.37
2019-03-02T05:04:09.254Z,22.27
2019-03-02T05:06:38.810Z,20.73
2019-03-02T05:09:08.773Z,19.10
2019-03-02T05:11:39.314Z,21.07
2019-03-02T05:14:08.526Z,23.33
2019-03-02T05:16:38.012Z,21.90
2019-03-02T05:19:07.257Z,22.00
2019-03-02T05:21:39.929Z,21.43
2019-03-02T05:24:09.207Z,18.97
2019-03-02T05:26:38.599Z,23.43
2019-03-02T05:29:07.662Z,16.63
2019-03-02T05:31:37.533Z,20.03
2019-03-02T05:34:08.143Z,17.70
2019-03-02T05:36:38.051Z,21.33
2019-03-02T05:39:07.602Z,23.87
2019-03-02T05:41:39.177Z,19.30
2019-03-02T05:44:07.991Z,22.23
2019-03-02T05:46:37.370Z,20.87
2019-03-02T05:49:06.800Z,22.20
2019-03-02T05:51:39.008Z,23.13
2019-03-02T05:54:07.617Z,23.50
2019-03-02T05:56:36.657Z,27.07
2019-03-02T05:59:05.772Z,25.63
2019-03-02T06:01:36.724Z,29.90
2019-03-02T06:04:06.259Z,23.87
2019-03-02T06:06:35.419Z,23.10
2019-03-02T06:09:07.996Z,25.27
2019-03-02T06:11:39.320Z,24.43
2019-03-02T06:14:08.708Z,26.67
2019-03-02T06:16:37.829Z,31.53
2019-03-02T06:19:07.585Z,26.57
2019-03-02T06:21:37.123Z,31.70
2019-03-02T06:24:06.580Z,27.07
2019-03-02T06:26:36.687Z,28.87
2019-03-02T06:29:06.052Z,32.77
2019-03-02T06:31:34.935Z,29.43
2019-03-02T06:34:04.580Z,26.70
2019-03-02T06:36:33.492Z,30.33
2019-03-02T06:39:03.851Z,30.83
2019-03-02T06:41:34.089Z,27.20
2019-03-02T06:44:07.139Z,28.60
2019-03-02T06:46:36.468Z,30.33
2019-03-02T06:49:07.486Z,36.63
2019-03-02T06:51:36.307Z,23.73
2019-03-02T06:54:08.930Z,27.63
2019-03-02T06:56:39.425Z,25.27
2019-03-02T06:59:07.990Z,34.43
2019-03-02T07:01:37.618Z,19.87
2019-03-02T07:04:07.262Z,26.70
2019-03-02T07:06:37.310Z,27.83
2019-03-02T07:09:09.525Z,25.47
2019-03-02T07:11:38.800Z,23.20
2019-03-02T07:14:08.403Z,26.30
2019-03-02T07:16:37.603Z,33.13
2019-03-02T07:19:40.995Z,28.90
2019-03-02T07:22:13.561Z,27.90
2019-03-02T07:24:42.368Z,23.10
2019-03-02T07:27:11.594Z,27.53
2019-03-02T07:29:41.087Z,29.53
2019-03-02T07:32:10.160Z,28.53
2019-03-02T07:34:40.734Z,24.47
2019-03-02T07:37:10.258Z,24.47
2019-03-02T07:39:39.687Z,24.67
2019-03-02T07:42:08.895Z,28.53
2019-03-02T07:44:38.107Z,32.47
2019-03-02T07:47:07.500Z,46.70
2019-03-02T07:49:36.723Z,25.07
2019-03-02T07:52:06.196Z,31.63
2019-03-02T07:54:38.763Z,28.93
2019-03-02T07:57:08.743Z,23.20
2019-03-02T07:59:37.431Z,34.67
2019-03-02T08:02:07.376Z,24.10
2019-03-02T08:04:38.523Z,29.90
2019-03-02T08:07:08.244Z,26.87
2019-03-02T08:09:38.204Z,22.17
2019-03-02T08:12:07.768Z,27.90
2019-03-02T08:14:37.167Z,25.70
2019-03-02T08:17:09.757Z,30.73
2019-03-02T08:19:38.173Z,27.00
2019-03-02T08:22:07.939Z,27.87
2019-03-02T08:24:40.233Z,19.10
2019-03-02T08:27:10.438Z,19.63
2019-03-02T08:29:39.569Z,24.17
2019-03-02T08:32:10.385Z,23.90
2019-03-02T08:34:42.879Z,22.70
2019-03-02T08:37:10.193Z,29.70
2019-03-02T08:39:42.824Z,21.40
2019-03-02T08:42:12.140Z,27.13
2019-03-02T08:44:42.014Z,21.13
2019-03-02T08:47:11.180Z,23.13
2019-03-02T08:49:42.800Z,25.77
2019-03-02T08:52:12.383Z,22.20
2019-03-02T08:54:41.994Z,22.00
2019-03-02T08:57:11.555Z,18.17
2019-03-02T08:59:42.203Z,22.20
2019-03-02T09:02:11.593Z,22.87
2019-03-02T09:04:41.405Z,23.23
2019-03-02T09:07:11.418Z,21.40
2019-03-02T09:09:41.916Z,23.00
2019-03-02T09:12:11.568Z,21.23
2019-03-02T09:14:41.064Z,31.10
2019-03-02T09:17:14.018Z,22.97
2019-03-02T09:19:41.859Z,20.47
2019-03-02T09:22:11.525Z,23.73
2019-03-02T09:24:40.325Z,30.20
2019-03-02T09:27:09.416Z,23.23
2019-03-02T09:29:38.816Z,24.87
2019-03-02T09:32:10.927Z,19.03
2019-03-02T09:34:40.487Z,33.03
2019-03-02T09:37:10.299Z,22.40
2019-03-02T09:39:39.316Z,22.03
2019-03-02T09:42:08.492Z,15.77
2019-03-02T09:44:38.220Z,22.93
2019-03-02T09:47:09.088Z,17.27
2019-03-02T09:49:38.473Z,16.47
2019-03-02T09:52:08.067Z,20.23
2019-03-02T09:54:37.988Z,16.63
2019-03-02T09:57:06.974Z,20.97
2019-03-02T09:59:36.403Z,21.70
2019-03-02T10:02:05.335Z,19.07
2019-03-02T10:04:35.896Z,20.20
2019-03-02T10:07:05.893Z,17.63
2019-03-02T10:09:35.393Z,25.00
2019-03-02T10:12:04.356Z,20.30
2019-03-02T10:14:35.023Z,15.70
2019-03-02T10:17:04.255Z,19.80
2019-03-02T10:19:34.344Z,20.73
2019-03-02T10:22:03.531Z,20.63
2019-03-02T10:24:32.713Z,19.80
2019-03-02T10:27:01.920Z,17.40
2019-03-02T10:29:32.413Z,17.93
2019-03-02T10:32:04.374Z,20.67
2019-03-02T10:34:33.507Z,19.50
2019-03-02T10:37:07.359Z,19.33
2019-03-02T10:39:35.503Z,21.27
2019-03-02T10:42:05.039Z,16.13
2019-03-02T10:44:34.212Z,20.73
2019-03-02T10:47:03.715Z,19.60
2019-03-02T10:49:33.335Z,17.13
2019-03-02T10:52:02.837Z,18.60
2019-03-02T10:54:34.774Z,17.53
2019-03-02T10:57:02.718Z,19.33
2019-03-02T10:59:32.605Z,14.63
2019-03-02T11:02:01.960Z,19.67
2019-03-02T11:04:36.956Z,17.60
2019-03-02T11:07:24.092Z,18.73
2019-03-02T11:10:13.013Z,17.83
2019-03-02T11:12:58.357Z,20.10
2019-03-02T11:15:43.671Z,17.43
2019-03-02T11:18:27.163Z,21.60
2019-03-02T11:21:05.040Z,17.93
2019-03-02T11:23:40.496Z,17.07
2019-03-02T11:26:37.753Z,14.40
2019-03-02T11:29:21.114Z,18.30
2019-03-02T11:32:04.418Z,16.70
2019-03-02T11:34:40.581Z,17.20
2019-03-02T11:37:28.577Z,18.67
2019-03-02T11:40:14.849Z,15.27
2019-03-02T11:42:53.432Z,17.20
2019-03-02T11:45:38.324Z,16.70
2019-03-02T11:48:21.423Z,16.87
2019-03-02T11:51:06.769Z,17.30
2019-03-02T11:53:52.106Z,15.83
2019-03-02T11:56:47.688Z,17.07
2019-03-02T11:59:29.994Z,16.90
2019-03-02T12:02:23.847Z,18.57
2019-03-02T12:05:04.132Z,64.83
2019-03-02T12:07:50.643Z,61.77
2019-03-02T12:10:38.833Z,19.23
2019-03-02T12:13:27.740Z,16.90
2019-03-02T12:16:16.289Z,17.47
2019-03-02T12:19:07.608Z,12.67
2019-03-02T12:22:00.363Z,16.17
2019-03-02T12:24:54.673Z,15.93
2019-03-02T12:27:50.459Z,15.13
2019-03-02T12:30:27.202Z,15.53
2019-03-02T12:33:06.564Z,15.60
2019-03-02T12:36:07.527Z,15.70
2019-03-02T12:38:58.636Z,17.20
2019-03-02T12:41:48.950Z,13.70
2019-03-02T12:44:38.697Z,14.53
2019-03-02T12:47:20.487Z,12.83
2019-03-02T12:49:59.199Z,18.20
2019-03-02T12:52:53.407Z,19.40
2019-03-02T12:55:41.645Z,17.23
2019-03-02T12:58:15.959Z,16.30
2019-03-02T13:00:55.075Z,11.97
2019-03-02T13:03:52.103Z,17.30
2019-03-02T13:06:46.185Z,18.10
2019-03-02T13:09:41.053Z,19.87
2019-03-02T13:12:39.090Z,16.60
2019-03-02T13:15:26.543Z,17.93
2019-03-02T13:18:15.481Z,16.67
2019-03-02T13:20:53.992Z,16.43
2019-03-02T13:23:33.115Z,14.83
2019-03-02T13:26:27.715Z,15.03
2019-03-02T13:29:12.932Z,15.60
2019-03-02T13:31:59.228Z,15.77
2019-03-02T13:34:48.235Z,12.60
2019-03-02T13:37:26.577Z,15.37
2019-03-02T13:40:13.628Z,16.70
2019-03-02T13:42:52.117Z,14.40
2019-03-02T13:45:58.930Z,14.67
2019-03-02T13:48:44.929Z,13.50
2019-03-02T13:51:42.058Z,12.80
2019-03-02T13:54:17.467Z,17.20
2019-03-02T13:57:04.720Z,12.97
2019-03-02T13:59:52.292Z,18.03
2019-03-02T14:02:39.845Z,18.00
2019-03-02T14:05:34.545Z,16.37
2019-03-02T14:08:20.299Z,39.07
2019-03-02T14:11:14.721Z,33.50
2019-03-02T14:13:58.006Z,20.13
2019-03-02T14:16:55.336Z,21.23
2019-03-02T14:20:02.082Z,20.23
2019-03-02T14:22:44.881Z,17.00
2019-03-02T14:25:22.755Z,14.60
2019-03-02T14:28:12.280Z,15.90
2019-03-02T14:31:06.641Z,15.90
2019-03-02T14:34:02.966Z,21.00
2019-03-02T14:36:51.036Z,14.27
2019-03-02T14:39:39.398Z,13.97
2019-03-02T14:42:27.621Z,13.80
2019-03-02T14:45:34.704Z,14.93
2019-03-02T14:48:26.907Z,12.57
2019-03-02T14:51:02.904Z,17.03
2019-03-02T14:53:41.959Z,19.80
2019-03-02T14:56:29.261Z,15.63
2019-03-02T14:59:21.505Z,20.03
2019-03-02T15:01:57.947Z,17.47
2019-03-02T15:05:03.546Z,17.33
2019-03-02T15:07:41.384Z,18.00
2019-03-02T15:10:22.816Z,23.47
2019-03-02T15:13:13.460Z,23.53
2019-03-02T15:16:15.430Z,17.30
2019-03-02T15:19:06.582Z,16.20
2019-03-02T15:21:57.276Z,13.70
2019-03-02T15:25:04.156Z,17.10
2019-03-02T15:27:58.003Z,17.50
2019-03-02T15:30:46.044Z,16.83
2019-03-02T15:33:20.918Z,22.00
2019-03-02T15:36:01.465Z,17.33
2019-03-02T15:38:49.608Z,19.60
2019-03-02T15:41:37.965Z,23.60
2019-03-02T15:44:20.778Z,19.63
2019-03-02T15:47:17.483Z,17.83
2019-03-02T15:50:04.335Z,19.13
2019-03-02T15:52:43.855Z,21.03
2019-03-02T15:55:31.296Z,15.80
2019-03-02T15:58:15.649Z,23.40
2019-03-02T16:00:54.717Z,11.70
2019-03-02T16:03:49.115Z,16.23
2019-03-02T16:06:40.687Z,13.13
2019-03-02T16:09:20.610Z,17.03
2019-03-02T16:12:09.685Z,14.37
2019-03-02T16:15:04.197Z,16.03
2019-03-02T16:17:43.218Z,11.33
2019-03-02T16:20:27.132Z,15.37
2019-03-02T16:23:18.552Z,14.07
2019-03-02T16:25:55.960Z,16.93
2019-03-02T16:28:50.919Z,18.47
2019-03-02T16:31:41.296Z,13.00
2019-03-02T16:34:24.857Z,16.70
2019-03-02T16:37:13.102Z,12.27
2019-03-02T16:40:04.922Z,15.27
2019-03-02T16:42:49.988Z,11.60
2019-03-02T16:45:26.307Z,20.30
2019-03-02T16:48:08.444Z,14.30
2019-03-02T16:50:53.642Z,15.53
2019-03-02T16:53:49.132Z,13.50
2019-03-02T16:56:36.829Z,16.90
2019-03-02T16:59:12.475Z,14.33
2019-03-02T17:01:57.663Z,16.10
2019-03-02T17:04:45.277Z,14.07
2019-03-02T17:07:22.244Z,11.33
2019-03-02T17:10:12.036Z,13.60
2019-03-02T17:12:51.061Z,11.73
2019-03-02T17:15:42.268Z,10.93
2019-03-02T17:18:25.314Z,12.30
2019-03-02T17:21:00.227Z,10.73
2019-03-02T17:23:42.865Z,13.40
2019-03-02T17:26:28.021Z,10.57
2019-03-02T17:29:22.112Z,17.17
2019-03-02T17:32:04.685Z,12.03
2019-03-02T17:34:45.065Z,8.93
2019-03-02T17:37:39.917Z,8.23
2019-03-02T17:40:17.977Z,11.40
2019-03-02T17:43:03.576Z,10.37
2019-03-02T17:45:54.235Z,10.73
2019-03-02T17:48:31.868Z,9.90
2019-03-02T17:51:20.404Z,10.67
2019-03-02T17:53:59.804Z,8.77
2019-03-02T17:56:48.375Z,8.30
2019-03-02T17:59:35.577Z,10.43
2019-03-02T18:02:11.463Z,8.00
2019-03-02T18:05:00.346Z,9.43
2019-03-02T18:07:40.085Z,9.00
2019-03-02T18:10:20.124Z,9.50
2019-03-02T18:13:17.697Z,7.60
2019-03-02T18:16:06.520Z,8.93
2019-03-02T18:18:35.320Z,7.70
2019-03-02T18:21:04.648Z,9.30
2019-03-02T18:23:33.756Z,11.57
2019-03-02T18:26:03.677Z,7.53
2019-03-02T18:28:33.155Z,8.60
2019-03-02T18:31:03.069Z,12.03
2019-03-02T18:33:37.435Z,8.77
2019-03-02T18:36:09.902Z,9.33
2019-03-02T18:38:37.326Z,6.07
2019-03-02T18:41:06.825Z,7.83
2019-03-02T18:43:35.706Z,6.13
2019-03-02T18:46:04.636Z,8.13
2019-03-02T18:48:56.589Z,7.77
2019-03-02T18:51:34.839Z,10.50
2019-03-02T18:54:11.970Z,5.67
2019-03-02T18:56:42.727Z,6.00
2019-03-02T18:59:11.862Z,7.73
2019-03-02T19:01:41.769Z,10.00
2019-03-02T19:04:11.072Z,6.10
2019-03-02T19:06:40.272Z,6.80
2019-03-02T19:09:10.864Z,5.70
2019-03-02T19:11:40.156Z,9.53
2019-03-02T19:14:09.340Z,7.07
2019-03-02T19:16:39.133Z,6.07
2019-03-02T19:19:08.622Z,8.40
2019-03-02T19:21:37.590Z,7.20
2019-03-02T19:24:06.908Z,7.00
2019-03-02T19:26:36.006Z,9.53
2019-03-02T19:29:05.720Z,7.57
2019-03-02T19:31:35.356Z,12.57
2019-03-02T19:34:04.664Z,8.00
2019-03-02T19:36:34.481Z,6.40
2019-03-02T19:39:05.992Z,11.30
2019-03-02T19:41:35.286Z,5.93
2019-03-02T19:44:04.244Z,6.40
2019-03-02T19:46:33.376Z,3.90
2019-03-02T19:49:03.736Z,6.50
2019-03-02T19:51:32.895Z,3.77
2019-03-02T19:54:02.395Z,6.30
2019-03-02T19:56:32.208Z,5.53
2019-03-02T19:59:01.741Z,4.57
2019-03-02T20:01:30.946Z,4.10
2019-03-02T20:03:59.863Z,5.23
2019-03-02T20:06:29.403Z,4.57
2019-03-02T20:08:58.340Z,6.17
2019-03-02T20:11:27.648Z,4.67
2019-03-02T20:13:56.581Z,6.57
2019-03-02T20:16:25.800Z,6.67
2019-03-02T20:18:54.895Z,6.50
2019-03-02T20:21:24.002Z,6.53
2019-03-02T20:23:53.956Z,4.80
2019-03-02T20:26:22.955Z,4.30
2019-03-02T20:28:53.115Z,4.80
2019-03-02T20:31:22.002Z,4.57
2019-03-02T20:33:51.183Z,4.63
2019-03-02T20:36:20.095Z,4.30
2019-03-02T20:38:49.860Z,4.07
2019-03-02T20:41:19.004Z,4.90
2019-03-02T20:43:48.652Z,4.47
2019-03-02T20:46:18.529Z,4.43
2019-03-02T20:48:47.988Z,4.07
2019-03-02T20:51:17.592Z,5.50
2019-03-02T20:53:46.739Z,5.03
2019-03-02T20:56:15.908Z,4.90
2019-03-02T20:58:45.136Z,5.40
2019-03-02T21:01:14.740Z,4.83
2019-03-02T21:03:44.264Z,5.10
2019-03-02T21:06:13.256Z,4.33
2019-03-02T21:08:42.146Z,4.53
2019-03-02T21:11:11.418Z,5.03
2019-03-02T21:13:40.928Z,4.97
2019-03-02T21:16:10.339Z,5.60
2019-03-02T21:18:40.057Z,4.33
2019-03-02T21:21:09.340Z,4.30
2019-03-02T21:23:38.168Z,4.40
2019-03-02T21:26:07.135Z,5.33
2019-03-02T21:28:35.918Z,4.20
2019-03-02T21:31:05.649Z,5.77
2019-03-02T21:33:34.548Z,5.33
2019-03-02T21:36:03.850Z,5.57
2019-03-02T21:38:33.163Z,5.77
2019-03-02T21:41:04.631Z,5.93
2019-03-02T21:43:33.807Z,5.40
2019-03-02T21:46:03.100Z,4.83
2019-03-02T21:48:32.341Z,10.10
2019-03-02T21:51:01.660Z,7.13
2019-03-02T21:53:30.651Z,4.93
2019-03-02T21:56:00.092Z,7.70
2019-03-02T21:58:29.968Z,5.70
2019-03-02T22:00:59.382Z,5.07
2019-03-02T22:03:28.476Z,5.93
2019-03-02T22:05:57.386Z,7.20
2019-03-02T22:08:26.900Z,4.50
2019-03-02T22:11:00.262Z,5.10
2019-03-02T22:13:29.355Z,4.20
2019-03-02T22:15:58.914Z,6.90
2019-03-02T22:18:27.948Z,4.70
2019-03-02T22:20:57.675Z,4.27
2019-03-02T22:23:27.920Z,6.83
2019-03-02T22:25:57.055Z,4.40
2019-03-02T22:28:26.183Z,5.20
2019-03-02T22:30:55.590Z,7.13
2019-03-02T22:33:24.463Z,4.60
2019-03-02T22:35:53.671Z,8.20
2019-03-02T22:38:24.721Z,5.30
2019-03-02T22:40:54.003Z,5.13
2019-03-02T22:43:22.852Z,5.07
2019-03-02T22:45:52.017Z,6.40
2019-03-02T22:48:21.405Z,12.13
2019-03-02T22:50:50.704Z,4.43
2019-03-02T22:53:19.904Z,6.03
2019-03-02T22:55:48.820Z,6.77
2019-03-02T22:58:18.094Z,5.33
2019-03-02T23:01:17.636Z,6.70
2019-03-02T23:03:45.088Z,4.87
2019-03-02T23:06:14.254Z,3.83
2019-03-02T23:08:43.350Z,4.53
2019-03-02T23:11:12.634Z,5.03
2019-03-02T23:13:42.047Z,3.97
2019-03-02T23:16:10.995Z,8.33
2019-03-02T23:18:40.140Z,7.73
2019-03-02T23:21:09.104Z,5.87
2019-03-02T23:23:38.237Z,6.10
2019-03-02T23:26:07.190Z,8.17
2019-03-02T23:28:36.416Z,5.13
2019-03-02T23:31:05.359Z,6.10
2019-03-02T23:33:34.135Z,4.07
2019-03-02T23:36:04.932Z,4.80
2019-03-02T23:38:33.830Z,7.23
2019-03-02T23:41:05.419Z,4.20
2019-03-02T23:43:34.372Z,4.13
2019-03-02T23:46:04.623Z,5.30
2019-03-02T23:48:33.684Z,6.37
2019-03-02T23:51:02.456Z,3.27
2019-03-02T23:53:31.339Z,5.93
2019-03-02T23:56:04.587Z,2.90
2019-03-02T23:58:33.756Z,5.03
